PROFILE

 METAR AND TAF INFORMATION
ADDS - METARS form results

(0356 UTC 25 April 2019)
http://aviationweather.gov/metar/data/
 
LOWS 250350Z 20003KT CAVOK 06/04 Q1012 NOSIG
LOWS 250320Z AUTO 18002KT 9999 NSC 07/05 Q1012
TAF AMD LOWS 250032Z 2500/2524 29006KT CAVOK TX26/2514Z TN12/2504Z BECMG 2504/2506 15012KT TEMPO 2508/2518 15015G25KT 

 AIRPORT MAP

 RUNWAY INFORMATION
Runway 16 Runway length 9022 ft Runway width 148 ft
Runway elevation 1411 ft Runway displaced threshold 656 ft Runway heading 157
Runway 34 Runway length 9022 ft Runway width 148 ft
Runway elevation 1411 ft Runway displaced threshold 787 ft Runway heading 337

 AIRPORT FREQUENCIES
Type APP Name APP Frequency 123.725 MHZ
Type ATIS Name ATIS Frequency 125.725 MHZ
Type GND Name GND Frequency 121.75 MHZ
Type TWR Name TWR Frequency 118.1 MHZ

 AIRPORT NEAR NAVIGATION AIDS
Type VOR-DME Name Salzburg Frequency 113800 KHZ
Type NDB Name Salzburg Frequency 382 KHZ
Type NDB Name Salzburg Frequency 410 KHZ
Type NDB Name Salzburg Frequency 356 KHZ